sensor_id;sensor_type;location;lat;lon;timestamp;P1;durP1;ratioP1;P2;durP2;ratioP2
20954;SDS011;10636;19.390;-99.256;2023-05-07T00:01:01;30.45;;;27.35;;
20954;SDS011;10636;19.390;-99.256;2023-05-07T00:03:33;32.10;;;28.23;;
20954;SDS011;10636;19.390;-99.256;2023-05-07T00:06:02;30.60;;;27.50;;
20954;SDS011;10636;19.390;-99.256;2023-05-07T00:08:30;31.92;;;28.50;;
20954;SDS011;10636;19.390;-99.256;2023-05-07T00:10:59;31.52;;;28.27;;
20954;SDS011;10636;19.390;-99.256;2023-05-07T00:13:27;31.80;;;28.63;;
20954;SDS011;10636;19.390;-99.256;2023-05-07T00:16:00;27.45;;;24.05;;
20954;SDS011;10636;19.390;-99.256;2023-05-07T00:18:29;30.10;;;26.08;;
20954;SDS011;10636;19.390;-99.256;2023-05-07T00:20:59;32.08;;;28.67;;
20954;SDS011;10636;19.390;-99.256;2023-05-07T00:23:28;31.85;;;28.40;;
20954;SDS011;10636;19.390;-99.256;2023-05-07T00:25:56;30.90;;;28.00;;
20954;SDS011;10636;19.390;-99.256;2023-05-07T00:28:28;31.30;;;28.30;;
20954;SDS011;10636;19.390;-99.256;2023-05-07T00:30:56;30.67;;;27.45;;
20954;SDS011;10636;19.390;-99.256;2023-05-07T00:33:26;30.77;;;27.48;;
20954;SDS011;10636;19.390;-99.256;2023-05-07T00:35:55;30.33;;;27.23;;
20954;SDS011;10636;19.390;-99.256;2023-05-07T00:38:25;31.58;;;28.55;;
20954;SDS011;10636;19.390;-99.256;2023-05-07T00:40:53;31.92;;;28.63;;
20954;SDS011;10636;19.390;-99.256;2023-05-07T00:43:22;32.88;;;29.77;;
20954;SDS011;10636;19.390;-99.256;2023-05-07T00:45:50;33.88;;;30.42;;
20954;SDS011;10636;19.390;-99.256;2023-05-07T00:48:19;34.95;;;31.42;;
20954;SDS011;10636;19.390;-99.256;2023-05-07T00:50:49;34.03;;;30.42;;
20954;SDS011;10636;19.390;-99.256;2023-05-07T00:53:18;33.22;;;29.95;;
20954;SDS011;10636;19.390;-99.256;2023-05-07T00:55:49;35.97;;;32.58;;
20954;SDS011;10636;19.390;-99.256;2023-05-07T00:58:18;35.40;;;32.03;;
20954;SDS011;10636;19.390;-99.256;2023-05-07T01:00:48;33.10;;;29.55;;
20954;SDS011;10636;19.390;-99.256;2023-05-07T01:03:17;32.25;;;28.85;;
20954;SDS011;10636;19.390;-99.256;2023-05-07T01:05:45;29.42;;;26.60;;
20954;SDS011;10636;19.390;-99.256;2023-05-07T01:08:15;30.15;;;25.80;;
20954;SDS011;10636;19.390;-99.256;2023-05-07T01:10:45;26.80;;;23.55;;
20954;SDS011;10636;19.390;-99.256;2023-05-07T01:13:15;24.65;;;19.92;;
20954;SDS011;10636;19.390;-99.256;2023-05-07T01:15:46;25.02;;;19.67;;
20954;SDS011;10636;19.390;-99.256;2023-05-07T01:18:14;25.00;;;19.50;;
20954;SDS011;10636;19.390;-99.256;2023-05-07T01:20:43;21.88;;;19.00;;
20954;SDS011;10636;19.390;-99.256;2023-05-07T01:23:15;21.90;;;19.55;;
20954;SDS011;10636;19.390;-99.256;2023-05-07T01:25:50;21.65;;;19.08;;
20954;SDS011;10636;19.390;-99.256;2023-05-07T01:28:19;22.15;;;19.35;;
20954;SDS011;10636;19.390;-99.256;2023-05-07T01:30:49;22.35;;;19.40;;
20954;SDS011;10636;19.390;-99.256;2023-05-07T01:33:22;21.20;;;19.08;;
20954;SDS011;10636;19.390;-99.256;2023-05-07T01:35:51;21.02;;;17.63;;
20954;SDS011;10636;19.390;-99.256;2023-05-07T01:38:22;26.10;;;17.67;;
20954;SDS011;10636;19.390;-99.256;2023-05-07T01:40:52;19.70;;;17.75;;
20954;SDS011;10636;19.390;-99.256;2023-05-07T01:43:20;20.08;;;17.83;;
20954;SDS011;10636;19.390;-99.256;2023-05-07T01:45:49;19.15;;;17.33;;
20954;SDS011;10636;19.390;-99.256;2023-05-07T01:48:18;19.38;;;17.42;;
20954;SDS011;10636;19.390;-99.256;2023-05-07T01:50:46;18.35;;;16.58;;
20954;SDS011;10636;19.390;-99.256;2023-05-07T01:53:15;20.27;;;18.25;;
20954;SDS011;10636;19.390;-99.256;2023-05-07T01:55:45;19.42;;;17.38;;
20954;SDS011;10636;19.390;-99.256;2023-05-07T01:58:13;17.83;;;16.08;;
20954;SDS011;10636;19.390;-99.256;2023-05-07T02:00:42;18.13;;;16.42;;
20954;SDS011;10636;19.390;-99.256;2023-05-07T02:03:10;17.00;;;15.43;;
20954;SDS011;10636;19.390;-99.256;2023-05-07T02:05:39;16.20;;;14.73;;
20954;SDS011;10636;19.390;-99.256;2023-05-07T02:08:07;16.02;;;14.52;;
20954;SDS011;10636;19.390;-99.256;2023-05-07T02:10:36;15.80;;;14.13;;
20954;SDS011;10636;19.390;-99.256;2023-05-07T02:13:06;15.55;;;14.15;;
20954;SDS011;10636;19.390;-99.256;2023-05-07T02:15:34;15.35;;;13.82;;
20954;SDS011;10636;19.390;-99.256;2023-05-07T02:18:05;14.57;;;13.18;;
20954;SDS011;10636;19.390;-99.256;2023-05-07T02:20:34;14.25;;;12.85;;
20954;SDS011;10636;19.390;-99.256;2023-05-07T02:23:03;12.93;;;11.82;;
20954;SDS011;10636;19.390;-99.256;2023-05-07T02:25:31;13.15;;;12.02;;
20954;SDS011;10636;19.390;-99.256;2023-05-07T02:27:59;12.15;;;11.10;;
20954;SDS011;10636;19.390;-99.256;2023-05-07T02:30:29;12.13;;;11.02;;
20954;SDS011;10636;19.390;-99.256;2023-05-07T02:32:58;11.77;;;10.68;;
20954;SDS011;10636;19.390;-99.256;2023-05-07T02:35:27;11.35;;;10.30;;
20954;SDS011;10636;19.390;-99.256;2023-05-07T02:37:55;9.82;;;9.02;;
20954;SDS011;10636;19.390;-99.256;2023-05-07T02:40:23;10.38;;;9.48;;
20954;SDS011;10636;19.390;-99.256;2023-05-07T02:42:52;9.80;;;8.93;;
20954;SDS011;10636;19.390;-99.256;2023-05-07T02:45:20;12.20;;;11.20;;
20954;SDS011;10636;19.390;-99.256;2023-05-07T02:47:50;14.10;;;12.70;;
20954;SDS011;10636;19.390;-99.256;2023-05-07T02:50:19;12.50;;;11.38;;
20954;SDS011;10636;19.390;-99.256;2023-05-07T02:52:47;9.63;;;8.73;;
20954;SDS011;10636;19.390;-99.256;2023-05-07T02:55:16;10.20;;;9.30;;
20954;SDS011;10636;19.390;-99.256;2023-05-07T02:57:44;9.10;;;8.30;;
20954;SDS011;10636;19.390;-99.256;2023-05-07T03:00:13;8.60;;;7.80;;
20954;SDS011;10636;19.390;-99.256;2023-05-07T03:02:44;8.85;;;8.10;;
20954;SDS011;10636;19.390;-99.256;2023-05-07T03:05:14;9.70;;;8.90;;
20954;SDS011;10636;19.390;-99.256;2023-05-07T03:07:42;9.65;;;8.73;;
20954;SDS011;10636;19.390;-99.256;2023-05-07T03:10:11;9.57;;;8.68;;
20954;SDS011;10636;19.390;-99.256;2023-05-07T03:12:40;9.70;;;8.90;;
20954;SDS011;10636;19.390;-99.256;2023-05-07T03:15:09;9.73;;;8.93;;
20954;SDS011;10636;19.390;-99.256;2023-05-07T03:17:38;10.73;;;9.82;;
20954;SDS011;10636;19.390;-99.256;2023-05-07T03:20:07;10.60;;;9.60;;
20954;SDS011;10636;19.390;-99.256;2023-05-07T03:22:38;11.07;;;10.10;;
20954;SDS011;10636;19.390;-99.256;2023-05-07T03:25:07;11.93;;;10.82;;
20954;SDS011;10636;19.390;-99.256;2023-05-07T03:27:36;10.68;;;9.73;;
20954;SDS011;10636;19.390;-99.256;2023-05-07T03:30:04;12.15;;;10.70;;
20954;SDS011;10636;19.390;-99.256;2023-05-07T03:32:34;10.70;;;9.80;;
20954;SDS011;10636;19.390;-99.256;2023-05-07T03:35:03;11.80;;;10.80;;
20954;SDS011;10636;19.390;-99.256;2023-05-07T03:37:32;11.65;;;10.65;;
20954;SDS011;10636;19.390;-99.256;2023-05-07T03:40:02;11.35;;;10.35;;
20954;SDS011;10636;19.390;-99.256;2023-05-07T03:42:31;11.68;;;10.52;;
20954;SDS011;10636;19.390;-99.256;2023-05-07T03:44:59;11.40;;;10.40;;
20954;SDS011;10636;19.390;-99.256;2023-05-07T03:47:28;11.55;;;10.55;;
20954;SDS011;10636;19.390;-99.256;2023-05-07T03:49:56;11.57;;;10.45;;
20954;SDS011;10636;19.390;-99.256;2023-05-07T03:52:25;11.07;;;9.98;;
20954;SDS011;10636;19.390;-99.256;2023-05-07T03:54:53;11.25;;;10.25;;
20954;SDS011;10636;19.390;-99.256;2023-05-07T03:57:23;10.80;;;9.80;;
20954;SDS011;10636;19.390;-99.256;2023-05-07T03:59:52;11.30;;;10.15;;
20954;SDS011;10636;19.390;-99.256;2023-05-07T04:02:20;11.00;;;10.10;;
20954;SDS011;10636;19.390;-99.256;2023-05-07T04:04:48;10.70;;;9.85;;
20954;SDS011;10636;19.390;-99.256;2023-05-07T04:07:17;10.75;;;9.85;;
20954;SDS011;10636;19.390;-99.256;2023-05-07T04:09:46;10.48;;;9.57;;
20954;SDS011;10636;19.390;-99.256;2023-05-07T04:12:17;10.55;;;9.55;;
20954;SDS011;10636;19.390;-99.256;2023-05-07T04:14:47;10.13;;;9.32;;
20954;SDS011;10636;19.390;-99.256;2023-05-07T04:17:16;11.07;;;10.07;;
20954;SDS011;10636;19.390;-99.256;2023-05-07T04:19:44;10.60;;;9.73;;
20954;SDS011;10636;19.390;-99.256;2023-05-07T04:22:13;10.40;;;9.60;;
20954;SDS011;10636;19.390;-99.256;2023-05-07T04:24:41;10.20;;;9.20;;
20954;SDS011;10636;19.390;-99.256;2023-05-07T04:27:10;9.35;;;8.50;;
20954;SDS011;10636;19.390;-99.256;2023-05-07T04:29:38;9.85;;;8.95;;
20954;SDS011;10636;19.390;-99.256;2023-05-07T04:32:09;9.55;;;8.65;;
20954;SDS011;10636;19.390;-99.256;2023-05-07T04:34:38;9.98;;;9.18;;
20954;SDS011;10636;19.390;-99.256;2023-05-07T04:37:06;9.85;;;9.05;;
20954;SDS011;10636;19.390;-99.256;2023-05-07T04:39:35;9.60;;;8.80;;
20954;SDS011;10636;19.390;-99.256;2023-05-07T04:42:03;10.13;;;9.30;;
20954;SDS011;10636;19.390;-99.256;2023-05-07T04:44:33;9.68;;;8.88;;
20954;SDS011;10636;19.390;-99.256;2023-05-07T04:47:02;9.57;;;8.77;;
20954;SDS011;10636;19.390;-99.256;2023-05-07T04:49:32;9.45;;;8.65;;
20954;SDS011;10636;19.390;-99.256;2023-05-07T04:52:01;9.35;;;8.55;;
20954;SDS011;10636;19.390;-99.256;2023-05-07T04:54:29;8.90;;;8.13;;
20954;SDS011;10636;19.390;-99.256;2023-05-07T04:56:58;9.50;;;8.63;;
20954;SDS011;10636;19.390;-99.256;2023-05-07T04:59:26;9.00;;;8.20;;
20954;SDS011;10636;19.390;-99.256;2023-05-07T05:01:55;9.20;;;8.40;;
20954;SDS011;10636;19.390;-99.256;2023-05-07T05:04:23;8.85;;;8.15;;
20954;SDS011;10636;19.390;-99.256;2023-05-07T05:06:53;8.80;;;8.10;;
20954;SDS011;10636;19.390;-99.256;2023-05-07T05:09:22;9.10;;;8.38;;
20954;SDS011;10636;19.390;-99.256;2023-05-07T05:11:50;8.57;;;7.78;;
20954;SDS011;10636;19.390;-99.256;2023-05-07T05:14:19;8.90;;;8.10;;
20954;SDS011;10636;19.390;-99.256;2023-05-07T05:16:47;8.50;;;7.80;;
20954;SDS011;10636;19.390;-99.256;2023-05-07T05:19:15;8.27;;;7.55;;
20954;SDS011;10636;19.390;-99.256;2023-05-07T05:21:44;8.70;;;8.00;;
20954;SDS011;10636;19.390;-99.256;2023-05-07T05:24:14;8.35;;;7.75;;
20954;SDS011;10636;19.390;-99.256;2023-05-07T05:26:43;8.45;;;7.70;;
20954;SDS011;10636;19.390;-99.256;2023-05-07T05:29:12;8.18;;;7.57;;
20954;SDS011;10636;19.390;-99.256;2023-05-07T05:31:40;8.30;;;7.63;;
20954;SDS011;10636;19.390;-99.256;2023-05-07T05:34:08;8.43;;;7.72;;
20954;SDS011;10636;19.390;-99.256;2023-05-07T05:36:37;8.25;;;7.65;;
20954;SDS011;10636;19.390;-99.256;2023-05-07T05:39:05;7.95;;;7.35;;
20954;SDS011;10636;19.390;-99.256;2023-05-07T05:41:36;8.23;;;7.55;;
20954;SDS011;10636;19.390;-99.256;2023-05-07T05:44:04;7.85;;;7.15;;
20954;SDS011;10636;19.390;-99.256;2023-05-07T05:46:33;7.90;;;7.30;;
20954;SDS011;10636;19.390;-99.256;2023-05-07T05:49:02;7.72;;;7.05;;
20954;SDS011;10636;19.390;-99.256;2023-05-07T05:51:30;7.72;;;7.13;;
20954;SDS011;10636;19.390;-99.256;2023-05-07T05:53:59;7.47;;;6.90;;
20954;SDS011;10636;19.390;-99.256;2023-05-07T05:56:27;7.72;;;7.10;;
20954;SDS011;10636;19.390;-99.256;2023-05-07T05:58:57;7.50;;;6.90;;
20954;SDS011;10636;19.390;-99.256;2023-05-07T06:01:26;7.40;;;6.82;;
20954;SDS011;10636;19.390;-99.256;2023-05-07T06:03:54;7.70;;;7.10;;
20954;SDS011;10636;19.390;-99.256;2023-05-07T06:06:23;6.65;;;6.15;;
20954;SDS011;10636;19.390;-99.256;2023-05-07T06:08:51;7.13;;;6.50;;
20954;SDS011;10636;19.390;-99.256;2023-05-07T06:11:20;7.35;;;6.75;;
20954;SDS011;10636;19.390;-99.256;2023-05-07T06:13:48;7.45;;;6.90;;
20954;SDS011;10636;19.390;-99.256;2023-05-07T06:16:18;7.03;;;6.53;;
20954;SDS011;10636;19.390;-99.256;2023-05-07T06:18:47;7.35;;;6.75;;
20954;SDS011;10636;19.390;-99.256;2023-05-07T06:21:15;7.55;;;6.95;;
20954;SDS011;10636;19.390;-99.256;2023-05-07T06:23:44;7.25;;;6.55;;
20954;SDS011;10636;19.390;-99.256;2023-05-07T06:26:12;7.53;;;6.93;;
20954;SDS011;10636;19.390;-99.256;2023-05-07T06:28:41;6.68;;;6.18;;
20954;SDS011;10636;19.390;-99.256;2023-05-07T06:31:12;6.93;;;6.43;;
20954;SDS011;10636;19.390;-99.256;2023-05-07T06:33:43;7.10;;;6.60;;
20954;SDS011;10636;19.390;-99.256;2023-05-07T06:36:12;7.03;;;6.43;;
20954;SDS011;10636;19.390;-99.256;2023-05-07T06:38:40;6.75;;;6.13;;
20954;SDS011;10636;19.390;-99.256;2023-05-07T06:41:09;7.15;;;6.55;;
20954;SDS011;10636;19.390;-99.256;2023-05-07T06:43:37;7.30;;;6.70;;
20954;SDS011;10636;19.390;-99.256;2023-05-07T06:46:06;7.13;;;6.53;;
20954;SDS011;10636;19.390;-99.256;2023-05-07T06:48:34;6.90;;;6.30;;
20954;SDS011;10636;19.390;-99.256;2023-05-07T06:51:04;6.90;;;6.30;;
20954;SDS011;10636;19.390;-99.256;2023-05-07T06:53:33;7.15;;;6.60;;
20954;SDS011;10636;19.390;-99.256;2023-05-07T06:56:02;7.15;;;6.63;;
20954;SDS011;10636;19.390;-99.256;2023-05-07T06:58:31;6.97;;;6.38;;
20954;SDS011;10636;19.390;-99.256;2023-05-07T07:00:59;6.72;;;6.22;;
20954;SDS011;10636;19.390;-99.256;2023-05-07T07:03:28;6.70;;;6.10;;
20954;SDS011;10636;19.390;-99.256;2023-05-07T07:05:56;7.10;;;6.50;;
20954;SDS011;10636;19.390;-99.256;2023-05-07T07:08:26;6.85;;;6.25;;
20954;SDS011;10636;19.390;-99.256;2023-05-07T07:10:55;6.80;;;6.22;;
20954;SDS011;10636;19.390;-99.256;2023-05-07T07:13:23;6.70;;;6.20;;
20954;SDS011;10636;19.390;-99.256;2023-05-07T07:15:52;6.43;;;5.82;;
20954;SDS011;10636;19.390;-99.256;2023-05-07T07:18:20;6.47;;;5.97;;
20954;SDS011;10636;19.390;-99.256;2023-05-07T07:20:49;6.65;;;6.05;;
20954;SDS011;10636;19.390;-99.256;2023-05-07T07:23:17;6.80;;;6.30;;
20954;SDS011;10636;19.390;-99.256;2023-05-07T07:25:47;6.78;;;6.28;;
20954;SDS011;10636;19.390;-99.256;2023-05-07T07:28:16;6.82;;;6.22;;
20954;SDS011;10636;19.390;-99.256;2023-05-07T07:30:44;6.30;;;5.80;;
20954;SDS011;10636;19.390;-99.256;2023-05-07T07:33:13;6.47;;;5.97;;
20954;SDS011;10636;19.390;-99.256;2023-05-07T07:35:41;6.30;;;5.80;;
20954;SDS011;10636;19.390;-99.256;2023-05-07T07:38:10;6.10;;;5.60;;
20954;SDS011;10636;19.390;-99.256;2023-05-07T07:40:38;6.88;;;6.30;;
20954;SDS011;10636;19.390;-99.256;2023-05-07T07:43:08;6.28;;;5.78;;
20954;SDS011;10636;19.390;-99.256;2023-05-07T07:45:37;6.53;;;5.93;;
20954;SDS011;10636;19.390;-99.256;2023-05-07T07:48:06;6.53;;;6.03;;
20954;SDS011;10636;19.390;-99.256;2023-05-07T07:50:34;6.13;;;5.63;;
20954;SDS011;10636;19.390;-99.256;2023-05-07T07:53:03;6.22;;;5.72;;
20954;SDS011;10636;19.390;-99.256;2023-05-07T07:55:31;5.93;;;5.43;;
20954;SDS011;10636;19.390;-99.256;2023-05-07T07:57:59;6.20;;;5.68;;
20954;SDS011;10636;19.390;-99.256;2023-05-07T08:00:30;6.05;;;5.55;;
20954;SDS011;10636;19.390;-99.256;2023-05-07T08:02:58;6.22;;;5.72;;
20954;SDS011;10636;19.390;-99.256;2023-05-07T08:05:28;6.03;;;5.53;;
20954;SDS011;10636;19.390;-99.256;2023-05-07T08:07:57;6.28;;;5.78;;
20954;SDS011;10636;19.390;-99.256;2023-05-07T08:10:25;6.50;;;5.90;;
20954;SDS011;10636;19.390;-99.256;2023-05-07T08:12:54;5.82;;;5.32;;
20954;SDS011;10636;19.390;-99.256;2023-05-07T08:15:23;6.22;;;5.72;;
20954;SDS011;10636;19.390;-99.256;2023-05-07T08:17:53;6.35;;;5.85;;
20954;SDS011;10636;19.390;-99.256;2023-05-07T08:20:22;6.30;;;5.70;;
20954;SDS011;10636;19.390;-99.256;2023-05-07T08:22:51;6.30;;;5.80;;
20954;SDS011;10636;19.390;-99.256;2023-05-07T08:25:19;6.55;;;5.97;;
20954;SDS011;10636;19.390;-99.256;2023-05-07T08:27:48;6.03;;;5.53;;
20954;SDS011;10636;19.390;-99.256;2023-05-07T08:30:16;6.03;;;5.63;;
20954;SDS011;10636;19.390;-99.256;2023-05-07T08:32:45;6.43;;;5.93;;
20954;SDS011;10636;19.390;-99.256;2023-05-07T08:35:15;6.30;;;5.85;;
20954;SDS011;10636;19.390;-99.256;2023-05-07T08:37:43;6.70;;;6.10;;
20954;SDS011;10636;19.390;-99.256;2023-05-07T08:40:12;6.45;;;5.95;;
20954;SDS011;10636;19.390;-99.256;2023-05-07T08:42:40;6.40;;;5.90;;
20954;SDS011;10636;19.390;-99.256;2023-05-07T08:45:09;6.43;;;5.90;;
20954;SDS011;10636;19.390;-99.256;2023-05-07T08:47:42;6.65;;;6.05;;
20954;SDS011;10636;19.390;-99.256;2023-05-07T08:50:12;6.57;;;5.97;;
20954;SDS011;10636;19.390;-99.256;2023-05-07T08:52:42;6.53;;;6.03;;
20954;SDS011;10636;19.390;-99.256;2023-05-07T08:55:11;6.47;;;5.97;;
20954;SDS011;10636;19.390;-99.256;2023-05-07T08:57:40;6.72;;;6.22;;
20954;SDS011;10636;19.390;-99.256;2023-05-07T09:00:09;6.95;;;6.35;;
20954;SDS011;10636;19.390;-99.256;2023-05-07T09:02:39;6.20;;;5.72;;
20954;SDS011;10636;19.390;-99.256;2023-05-07T09:05:07;6.68;;;6.00;;
20954;SDS011;10636;19.390;-99.256;2023-05-07T09:07:38;6.05;;;5.65;;
20954;SDS011;10636;19.390;-99.256;2023-05-07T09:10:07;6.60;;;6.10;;
20954;SDS011;10636;19.390;-99.256;2023-05-07T09:12:36;6.72;;;6.20;;
20954;SDS011;10636;19.390;-99.256;2023-05-07T09:15:05;7.07;;;6.47;;
20954;SDS011;10636;19.390;-99.256;2023-05-07T09:17:34;7.07;;;6.47;;
20954;SDS011;10636;19.390;-99.256;2023-05-07T09:20:03;6.65;;;6.15;;
20954;SDS011;10636;19.390;-99.256;2023-05-07T09:22:32;7.07;;;6.47;;
20954;SDS011;10636;19.390;-99.256;2023-05-07T09:25:03;6.70;;;6.10;;
20954;SDS011;10636;19.390;-99.256;2023-05-07T09:27:32;7.20;;;6.60;;
20954;SDS011;10636;19.390;-99.256;2023-05-07T09:30:03;6.97;;;6.47;;
20954;SDS011;10636;19.390;-99.256;2023-05-07T09:32:34;7.20;;;6.60;;
20954;SDS011;10636;19.390;-99.256;2023-05-07T09:35:05;7.70;;;7.10;;
20954;SDS011;10636;19.390;-99.256;2023-05-07T09:37:41;7.78;;;7.07;;
20954;SDS011;10636;19.390;-99.256;2023-05-07T09:40:21;7.63;;;7.00;;
20954;SDS011;10636;19.390;-99.256;2023-05-07T09:42:50;7.45;;;6.82;;
20954;SDS011;10636;19.390;-99.256;2023-05-07T09:45:21;7.30;;;6.70;;
20954;SDS011;10636;19.390;-99.256;2023-05-07T09:47:52;7.45;;;6.85;;
20954;SDS011;10636;19.390;-99.256;2023-05-07T09:50:24;7.45;;;6.85;;
20954;SDS011;10636;19.390;-99.256;2023-05-07T09:52:54;8.02;;;7.32;;
20954;SDS011;10636;19.390;-99.256;2023-05-07T09:55:25;7.22;;;6.53;;
20954;SDS011;10636;19.390;-99.256;2023-05-07T09:57:55;7.63;;;7.03;;
20954;SDS011;10636;19.390;-99.256;2023-05-07T10:00:24;7.38;;;6.68;;
20954;SDS011;10636;19.390;-99.256;2023-05-07T10:02:56;7.80;;;7.10;;
20954;SDS011;10636;19.390;-99.256;2023-05-07T10:05:25;8.07;;;7.38;;
20954;SDS011;10636;19.390;-99.256;2023-05-07T10:07:54;7.47;;;6.88;;
20954;SDS011;10636;19.390;-99.256;2023-05-07T10:10:25;7.80;;;7.20;;
20954;SDS011;10636;19.390;-99.256;2023-05-07T10:12:55;8.02;;;7.30;;
20954;SDS011;10636;19.390;-99.256;2023-05-07T10:15:24;7.93;;;7.32;;
20954;SDS011;10636;19.390;-99.256;2023-05-07T10:17:53;7.80;;;7.20;;
20954;SDS011;10636;19.390;-99.256;2023-05-07T10:20:23;7.80;;;7.20;;
20954;SDS011;10636;19.390;-99.256;2023-05-07T10:22:52;7.43;;;6.82;;
20954;SDS011;10636;19.390;-99.256;2023-05-07T10:25:28;8.30;;;7.55;;
20954;SDS011;10636;19.390;-99.256;2023-05-07T10:27:59;7.32;;;6.72;;
20954;SDS011;10636;19.390;-99.256;2023-05-07T10:30:33;8.25;;;7.55;;
20954;SDS011;10636;19.390;-99.256;2023-05-07T10:33:11;7.93;;;7.28;;
20954;SDS011;10636;19.390;-99.256;2023-05-07T10:35:43;8.05;;;7.22;;
20954;SDS011;10636;19.390;-99.256;2023-05-07T10:38:14;8.10;;;7.40;;
20954;SDS011;10636;19.390;-99.256;2023-05-07T10:40:44;7.70;;;7.00;;
20954;SDS011;10636;19.390;-99.256;2023-05-07T10:43:12;7.97;;;7.25;;
20954;SDS011;10636;19.390;-99.256;2023-05-07T10:45:41;7.80;;;7.20;;
20954;SDS011;10636;19.390;-99.256;2023-05-07T10:48:10;8.23;;;7.53;;
20954;SDS011;10636;19.390;-99.256;2023-05-07T10:50:40;8.43;;;7.72;;
20954;SDS011;10636;19.390;-99.256;2023-05-07T10:53:21;8.45;;;7.78;;
20954;SDS011;10636;19.390;-99.256;2023-05-07T10:58:55;8.43;;;7.63;;
20954;SDS011;10636;19.390;-99.256;2023-05-07T11:01:52;8.40;;;7.60;;
20954;SDS011;10636;19.390;-99.256;2023-05-07T11:04:21;8.20;;;7.50;;
20954;SDS011;10636;19.390;-99.256;2023-05-07T11:10:00;8.63;;;7.72;;
20954;SDS011;10636;19.390;-99.256;2023-05-07T11:12:53;8.18;;;7.38;;
20954;SDS011;10636;19.390;-99.256;2023-05-07T11:15:37;8.15;;;7.45;;
20954;SDS011;10636;19.390;-99.256;2023-05-07T11:18:11;7.88;;;7.22;;
20954;SDS011;10636;19.390;-99.256;2023-05-07T11:20:50;8.43;;;7.78;;
20954;SDS011;10636;19.390;-99.256;2023-05-07T11:26:26;8.27;;;7.68;;
20954;SDS011;10636;19.390;-99.256;2023-05-07T11:28:58;8.27;;;7.57;;
20954;SDS011;10636;19.390;-99.256;2023-05-07T11:31:27;8.30;;;7.60;;
20954;SDS011;10636;19.390;-99.256;2023-05-07T11:33:56;8.48;;;7.78;;
20954;SDS011;10636;19.390;-99.256;2023-05-07T11:36:25;8.00;;;7.30;;
20954;SDS011;10636;19.390;-99.256;2023-05-07T11:38:59;8.15;;;7.55;;
20954;SDS011;10636;19.390;-99.256;2023-05-07T11:41:34;8.35;;;7.65;;
20954;SDS011;10636;19.390;-99.256;2023-05-07T11:44:05;8.18;;;7.47;;
20954;SDS011;10636;19.390;-99.256;2023-05-07T11:46:33;8.68;;;7.88;;
20954;SDS011;10636;19.390;-99.256;2023-05-07T11:49:02;8.32;;;7.72;;
20954;SDS011;10636;19.390;-99.256;2023-05-07T11:51:30;8.85;;;8.15;;
20954;SDS011;10636;19.390;-99.256;2023-05-07T11:53:59;8.57;;;7.88;;
20954;SDS011;10636;19.390;-99.256;2023-05-07T11:56:27;8.43;;;7.72;;
20954;SDS011;10636;19.390;-99.256;2023-05-07T11:58:55;8.50;;;7.70;;
20954;SDS011;10636;19.390;-99.256;2023-05-07T12:01:26;9.00;;;8.25;;
20954;SDS011;10636;19.390;-99.256;2023-05-07T12:03:54;8.50;;;7.85;;
20954;SDS011;10636;19.390;-99.256;2023-05-07T12:06:22;8.48;;;7.78;;
20954;SDS011;10636;19.390;-99.256;2023-05-07T12:08:51;8.65;;;8.00;;
20954;SDS011;10636;19.390;-99.256;2023-05-07T12:11:22;9.02;;;8.32;;
20954;SDS011;10636;19.390;-99.256;2023-05-07T12:13:53;8.88;;;8.15;;
20954;SDS011;10636;19.390;-99.256;2023-05-07T12:16:22;8.60;;;7.88;;
20954;SDS011;10636;19.390;-99.256;2023-05-07T12:18:53;8.40;;;7.70;;
20954;SDS011;10636;19.390;-99.256;2023-05-07T12:21:22;8.80;;;8.00;;
20954;SDS011;10636;19.390;-99.256;2023-05-07T12:23:51;8.23;;;7.47;;
20954;SDS011;10636;19.390;-99.256;2023-05-07T12:26:20;8.88;;;8.07;;
20954;SDS011;10636;19.390;-99.256;2023-05-07T12:28:49;8.40;;;7.60;;
20954;SDS011;10636;19.390;-99.256;2023-05-07T12:31:18;8.60;;;7.80;;
20954;SDS011;10636;19.390;-99.256;2023-05-07T12:33:46;8.80;;;7.75;;
20954;SDS011;10636;19.390;-99.256;2023-05-07T12:36:16;8.90;;;8.10;;
20954;SDS011;10636;19.390;-99.256;2023-05-07T12:38:46;8.32;;;7.63;;
20954;SDS011;10636;19.390;-99.256;2023-05-07T12:41:17;9.07;;;8.38;;
20954;SDS011;10636;19.390;-99.256;2023-05-07T12:43:51;8.73;;;8.02;;
20954;SDS011;10636;19.390;-99.256;2023-05-07T12:46:24;8.32;;;7.63;;
20954;SDS011;10636;19.390;-99.256;2023-05-07T12:48:55;8.55;;;7.85;;
20954;SDS011;10636;19.390;-99.256;2023-05-07T12:51:26;8.77;;;7.97;;
20954;SDS011;10636;19.390;-99.256;2023-05-07T12:53:55;9.07;;;8.27;;
20954;SDS011;10636;19.390;-99.256;2023-05-07T12:56:27;8.88;;;8.07;;
20954;SDS011;10636;19.390;-99.256;2023-05-07T12:58:58;8.88;;;8.15;;
20954;SDS011;10636;19.390;-99.256;2023-05-07T13:01:28;9.25;;;8.45;;
20954;SDS011;10636;19.390;-99.256;2023-05-07T13:04:00;8.60;;;7.90;;
20954;SDS011;10636;19.390;-99.256;2023-05-07T13:06:32;8.73;;;8.02;;
20954;SDS011;10636;19.390;-99.256;2023-05-07T13:09:01;9.30;;;8.50;;
20954;SDS011;10636;19.390;-99.256;2023-05-07T13:11:30;9.25;;;8.43;;
20954;SDS011;10636;19.390;-99.256;2023-05-07T13:13:58;8.95;;;8.15;;
20954;SDS011;10636;19.390;-99.256;2023-05-07T13:16:27;8.65;;;7.95;;
20954;SDS011;10636;19.390;-99.256;2023-05-07T13:18:55;8.80;;;7.90;;
20954;SDS011;10636;19.390;-99.256;2023-05-07T13:21:23;8.88;;;7.97;;
20954;SDS011;10636;19.390;-99.256;2023-05-07T13:23:54;8.30;;;7.60;;
20954;SDS011;10636;19.390;-99.256;2023-05-07T13:26:23;9.10;;;8.32;;
20954;SDS011;10636;19.390;-99.256;2023-05-07T13:28:52;9.38;;;8.48;;
20954;SDS011;10636;19.390;-99.256;2023-05-07T13:31:20;9.20;;;8.40;;
20954;SDS011;10636;19.390;-99.256;2023-05-07T13:33:49;10.32;;;9.32;;
20954;SDS011;10636;19.390;-99.256;2023-05-07T13:36:18;10.55;;;9.55;;
20954;SDS011;10636;19.390;-99.256;2023-05-07T13:38:46;10.68;;;9.73;;
20954;SDS011;10636;19.390;-99.256;2023-05-07T13:41:16;10.60;;;9.60;;
20954;SDS011;10636;19.390;-99.256;2023-05-07T13:43:45;10.27;;;9.40;;
20954;SDS011;10636;19.390;-99.256;2023-05-07T13:46:14;10.50;;;9.38;;
20954;SDS011;10636;19.390;-99.256;2023-05-07T13:48:42;11.95;;;9.45;;
20954;SDS011;10636;19.390;-99.256;2023-05-07T13:51:10;10.88;;;9.80;;
20954;SDS011;10636;19.390;-99.256;2023-05-07T13:53:39;11.75;;;10.55;;
20954;SDS011;10636;19.390;-99.256;2023-05-07T13:56:07;10.82;;;9.82;;
20954;SDS011;10636;19.390;-99.256;2023-05-07T13:58:38;11.75;;;10.63;;
20954;SDS011;10636;19.390;-99.256;2023-05-07T14:01:06;11.23;;;10.05;;
20954;SDS011;10636;19.390;-99.256;2023-05-07T14:03:34;12.15;;;10.88;;
20954;SDS011;10636;19.390;-99.256;2023-05-07T14:06:05;12.15;;;11.05;;
20954;SDS011;10636;19.390;-99.256;2023-05-07T14:08:33;11.55;;;10.45;;
20954;SDS011;10636;19.390;-99.256;2023-05-07T14:11:02;13.45;;;11.23;;
20954;SDS011;10636;19.390;-99.256;2023-05-07T14:13:30;11.80;;;10.65;;
20954;SDS011;10636;19.390;-99.256;2023-05-07T14:16:01;12.73;;;10.70;;
20954;SDS011;10636;19.390;-99.256;2023-05-07T14:18:31;12.02;;;10.88;;
20954;SDS011;10636;19.390;-99.256;2023-05-07T14:21:00;11.63;;;10.55;;
20954;SDS011;10636;19.390;-99.256;2023-05-07T14:23:29;11.88;;;10.77;;
20954;SDS011;10636;19.390;-99.256;2023-05-07T14:25:57;11.95;;;10.85;;
20954;SDS011;10636;19.390;-99.256;2023-05-07T14:28:26;12.40;;;11.13;;
20954;SDS011;10636;19.390;-99.256;2023-05-07T14:30:57;12.80;;;10.40;;
20954;SDS011;10636;19.390;-99.256;2023-05-07T14:33:27;12.85;;;11.60;;
20954;SDS011;10636;19.390;-99.256;2023-05-07T14:35:55;14.25;;;12.85;;